sensor_id;sensor_type;location;lat;lon;timestamp;pressure;altitude;pressure_sealevel;temperature;humidity
40490;BME280;26196;52.302;10.572;2023-03-03T00:03:59;101444.66;;;9.73;47.65
40490;BME280;26196;52.302;10.572;2023-03-03T00:08:00;101422.91;;;9.66;47.46
40490;BME280;26196;52.302;10.572;2023-03-03T00:12:14;101436.72;;;9.83;47.13
40490;BME280;26196;52.302;10.572;2023-03-03T00:16:30;101450.69;;;9.79;47.41
40490;BME280;26196;52.302;10.572;2023-03-03T00:20:37;101460.22;;;9.85;47.35
40490;BME280;26196;52.302;10.572;2023-03-03T00:24:44;101477.69;;;9.80;47.42
40490;BME280;26196;52.302;10.572;2023-03-03T00:28:50;101476.88;;;9.76;48.16
40490;BME280;26196;52.302;10.572;2023-03-03T00:32:54;101469.13;;;9.66;47.95
40490;BME280;26196;52.302;10.572;2023-03-03T00:36:56;101478.66;;;9.70;47.68
40490;BME280;26196;52.302;10.572;2023-03-03T00:40:59;101486.50;;;9.73;48.33
40490;BME280;26196;52.302;10.572;2023-03-03T00:45:00;101486.50;;;9.67;48.18
40490;BME280;26196;52.302;10.572;2023-03-03T00:49:01;101484.81;;;9.61;48.25
40490;BME280;26196;52.302;10.572;2023-03-03T00:53:10;101490.06;;;9.62;48.63
40490;BME280;26196;52.302;10.572;2023-03-03T00:57:10;101451.81;;;9.49;47.73
40490;BME280;26196;52.302;10.572;2023-03-03T01:01:11;101457.06;;;9.49;48.10
40490;BME280;26196;52.302;10.572;2023-03-03T01:05:15;101474.34;;;9.66;48.30
40490;BME280;26196;52.302;10.572;2023-03-03T01:09:16;101431.75;;;9.54;47.61
40490;BME280;26196;52.302;10.572;2023-03-03T01:13:18;101469.13;;;9.66;47.80
40490;BME280;26196;52.302;10.572;2023-03-03T01:17:28;101463.84;;;9.67;47.59
40490;BME280;26196;52.302;10.572;2023-03-03T01:21:29;101465.59;;;9.68;47.36
40490;BME280;26196;52.302;10.572;2023-03-03T01:25:29;101474.28;;;9.72;47.38
40490;BME280;26196;52.302;10.572;2023-03-03T01:29:30;101470.84;;;9.67;47.88
40490;BME280;26196;52.302;10.572;2023-03-03T01:33:33;101465.59;;;9.67;48.04
40490;BME280;26196;52.302;10.572;2023-03-03T01:37:34;101449.09;;;9.64;47.14
40490;BME280;26196;52.302;10.572;2023-03-03T01:41:35;101447.31;;;9.68;47.31
40490;BME280;26196;52.302;10.572;2023-03-03T01:46:20;101466.53;;;9.61;47.86
40490;BME280;26196;52.302;10.572;2023-03-03T01:50:10;101466.56;;;9.58;47.78
40490;BME280;26196;52.302;10.572;2023-03-03T01:54:17;101457.88;;;9.53;47.46
40490;BME280;26196;52.302;10.572;2023-03-03T01:59:32;101463.94;;;9.56;48.10
40490;BME280;26196;52.302;10.572;2023-03-03T02:03:13;101464.00;;;9.52;47.81
40490;BME280;26196;52.302;10.572;2023-03-03T02:07:13;101443.03;;;9.56;47.52
40490;BME280;26196;52.302;10.572;2023-03-03T02:11:17;101445.72;;;9.52;47.53
40490;BME280;26196;52.302;10.572;2023-03-03T02:28:03;101444.72;;;9.63;47.26
40490;BME280;26196;52.302;10.572;2023-03-03T02:32:04;101430.81;;;9.58;47.28
40490;BME280;26196;52.302;10.572;2023-03-03T02:36:05;101416.13;;;9.43;47.62
40490;BME280;26196;52.302;10.572;2023-03-03T02:40:06;101423.06;;;9.46;47.76
40490;BME280;26196;52.302;10.572;2023-03-03T02:44:26;101431.72;;;9.56;47.35
40490;BME280;26196;52.302;10.572;2023-03-03T02:48:27;101429.09;;;9.56;47.54
40490;BME280;26196;52.302;10.572;2023-03-03T02:52:32;101422.13;;;9.56;46.68
40490;BME280;26196;52.302;10.572;2023-03-03T02:56:33;101416.91;;;9.59;47.37
40490;BME280;26196;52.302;10.572;2023-03-03T03:00:35;101418.69;;;9.51;47.73
40490;BME280;26196;52.302;10.572;2023-03-03T03:04:36;101425.63;;;9.55;47.34
40490;BME280;26196;52.302;10.572;2023-03-03T03:08:44;101435.19;;;9.56;47.17
40490;BME280;26196;52.302;10.572;2023-03-03T03:12:45;101432.59;;;9.53;47.23
40490;BME280;26196;52.302;10.572;2023-03-03T03:16:45;101434.34;;;9.51;48.00
40490;BME280;26196;52.302;10.572;2023-03-03T03:20:45;101431.81;;;9.47;47.46
40490;BME280;26196;52.302;10.572;2023-03-03T03:24:46;101443.03;;;9.59;47.15
40490;BME280;26196;52.302;10.572;2023-03-03T03:28:47;101440.41;;;9.58;47.19
40490;BME280;26196;52.302;10.572;2023-03-03T03:33:07;101417.88;;;9.45;47.65
40490;BME280;26196;52.302;10.572;2023-03-03T03:37:07;101414.38;;;9.46;47.39
40490;BME280;26196;52.302;10.572;2023-03-03T03:41:10;101434.31;;;9.56;47.03
40490;BME280;26196;52.302;10.572;2023-03-03T03:45:11;101436.16;;;9.49;47.23
40490;BME280;26196;52.302;10.572;2023-03-03T03:49:14;101430.94;;;9.43;47.88
40490;BME280;26196;52.302;10.572;2023-03-03T03:53:15;101440.53;;;9.41;47.57
40490;BME280;26196;52.302;10.572;2023-03-03T03:57:16;101441.44;;;9.40;47.18
40490;BME280;26196;52.302;10.572;2023-03-03T04:01:16;101453.56;;;9.47;47.36
40490;BME280;26196;52.302;10.572;2023-03-03T04:05:17;101462.28;;;9.46;47.77
40490;BME280;26196;52.302;10.572;2023-03-03T04:09:17;101457.91;;;9.50;47.10
40490;BME280;26196;52.302;10.572;2023-03-03T04:13:18;101453.59;;;9.44;47.46
40490;BME280;26196;52.302;10.572;2023-03-03T04:17:21;101452.72;;;9.47;47.51
40490;BME280;26196;52.302;10.572;2023-03-03T04:21:21;101461.44;;;9.42;47.37
40490;BME280;26196;52.302;10.572;2023-03-03T04:25:22;101470.16;;;9.45;47.71
40490;BME280;26196;52.302;10.572;2023-03-03T04:29:22;101464.09;;;9.39;47.63
40490;BME280;26196;52.302;10.572;2023-03-03T04:33:23;101454.53;;;9.37;48.02
40490;BME280;26196;52.302;10.572;2023-03-03T04:37:23;101459.59;;;9.57;48.14
40490;BME280;26196;52.302;10.572;2023-03-03T04:41:23;101452.56;;;9.63;48.05
40490;BME280;26196;52.302;10.572;2023-03-03T04:45:24;101463.84;;;9.70;47.46
40490;BME280;26196;52.302;10.572;2023-03-03T04:49:30;101462.16;;;9.61;47.58
40490;BME280;26196;52.302;10.572;2023-03-03T04:53:31;101465.75;;;9.48;47.64
40490;BME280;26196;52.302;10.572;2023-03-03T04:57:31;101468.38;;;9.43;47.88
40490;BME280;26196;52.302;10.572;2023-03-03T05:01:31;101468.38;;;9.43;47.71
40490;BME280;26196;52.302;10.572;2023-03-03T05:05:32;101464.88;;;9.48;47.36
40490;BME280;26196;52.302;10.572;2023-03-03T05:09:32;101455.28;;;9.50;47.41
40490;BME280;26196;52.302;10.572;2023-03-03T05:13:32;101463.97;;;9.53;47.36
40490;BME280;26196;52.302;10.572;2023-03-03T05:17:33;101456.16;;;9.50;47.15
40490;BME280;26196;52.302;10.572;2023-03-03T05:21:38;101455.28;;;9.48;47.25
40490;BME280;26196;52.302;10.572;2023-03-03T05:25:41;101438.78;;;9.43;47.80
40490;BME280;26196;52.302;10.572;2023-03-03T05:29:41;101428.34;;;9.43;47.28
40490;BME280;26196;52.302;10.572;2023-03-03T05:33:42;101430.97;;;9.40;47.99
40490;BME280;26196;52.302;10.572;2023-03-03T05:37:42;101425.75;;;9.38;48.12
40490;BME280;26196;52.302;10.572;2023-03-03T05:41:50;101439.66;;;9.45;47.85
40490;BME280;26196;52.302;10.572;2023-03-03T05:45:57;101420.56;;;9.35;47.82
40490;BME280;26196;52.302;10.572;2023-03-03T05:49:58;101438.84;;;9.37;47.61
40490;BME280;26196;52.302;10.572;2023-03-03T05:54:00;101441.44;;;9.37;48.10
40490;BME280;26196;52.302;10.572;2023-03-03T05:58:01;101464.03;;;9.47;47.72
40490;BME280;26196;52.302;10.572;2023-03-03T06:02:02;101461.44;;;9.42;47.70
40490;BME280;26196;52.302;10.572;2023-03-03T06:06:03;101431.09;;;9.22;48.09
40490;BME280;26196;52.302;10.572;2023-03-03T06:10:04;101462.34;;;9.37;47.79
40490;BME280;26196;52.302;10.572;2023-03-03T06:14:04;101453.69;;;9.30;48.11
40490;BME280;26196;52.302;10.572;2023-03-03T06:18:05;101480.66;;;9.35;47.95
40490;BME280;26196;52.302;10.572;2023-03-03T06:22:05;101458.94;;;9.23;48.00
40490;BME280;26196;52.302;10.572;2023-03-03T06:26:06;101490.25;;;9.33;48.23
40490;BME280;26196;52.302;10.572;2023-03-03T06:30:07;101469.41;;;9.23;48.04
40490;BME280;26196;52.302;10.572;2023-03-03T06:34:08;101499.78;;;9.40;47.82
40490;BME280;26196;52.302;10.572;2023-03-03T06:38:08;101491.97;;;9.39;48.28
40490;BME280;26196;52.302;10.572;2023-03-03T06:42:08;101499.78;;;9.37;47.84
40490;BME280;26196;52.302;10.572;2023-03-03T06:46:09;101496.34;;;9.32;47.90
40490;BME280;26196;52.302;10.572;2023-03-03T06:50:11;101496.34;;;9.32;47.78
40490;BME280;26196;52.302;10.572;2023-03-03T06:54:13;101506.75;;;9.41;48.35
40490;BME280;26196;52.302;10.572;2023-03-03T06:58:16;101501.50;;;9.43;47.54
40490;BME280;26196;52.302;10.572;2023-03-03T07:02:18;101507.66;;;9.36;48.49
40490;BME280;26196;52.302;10.572;2023-03-03T07:06:21;101519.81;;;9.40;47.85
40490;BME280;26196;52.302;10.572;2023-03-03T07:14:22;101505.06;;;9.36;48.01
40490;BME280;26196;52.302;10.572;2023-03-03T07:23:35;101514.63;;;9.37;47.45
40490;BME280;26196;52.302;10.572;2023-03-03T07:27:41;101518.97;;;9.35;47.52
40490;BME280;26196;52.302;10.572;2023-03-03T07:31:45;101514.63;;;9.32;47.70
40490;BME280;26196;52.302;10.572;2023-03-03T07:35:46;101512.88;;;9.33;47.86
40490;BME280;26196;52.302;10.572;2023-03-03T07:39:49;101531.09;;;9.43;48.28
40490;BME280;26196;52.302;10.572;2023-03-03T07:44:03;101545.06;;;9.44;47.98
40490;BME280;26196;52.302;10.572;2023-03-03T07:48:24;101532.00;;;9.38;47.94
40490;BME280;26196;52.302;10.572;2023-03-03T07:52:40;101547.69;;;9.38;47.69
40490;BME280;26196;52.302;10.572;2023-03-03T07:56:41;101546.84;;;9.39;48.00
40490;BME280;26196;52.302;10.572;2023-03-03T08:04:46;101552.06;;;9.37;48.11
40490;BME280;26196;52.302;10.572;2023-03-03T08:08:49;101550.31;;;9.39;47.71
40490;BME280;26196;52.302;10.572;2023-03-03T08:12:50;101555.53;;;9.39;48.00
40490;BME280;26196;52.302;10.572;2023-03-03T08:16:51;101566.88;;;9.35;48.06
40490;BME280;26196;52.302;10.572;2023-03-03T08:20:58;101555.56;;;9.36;47.60
40490;BME280;26196;52.302;10.572;2023-03-03T08:25:00;101549.47;;;9.36;47.75
40490;BME280;26196;52.302;10.572;2023-03-03T08:29:00;101556.38;;;9.43;48.12
40490;BME280;26196;52.302;10.572;2023-03-03T08:33:00;101563.34;;;9.42;48.09
40490;BME280;26196;52.302;10.572;2023-03-03T08:37:01;101568.59;;;9.44;47.94
40490;BME280;26196;52.302;10.572;2023-03-03T08:41:01;101572.97;;;9.39;48.11
40490;BME280;26196;52.302;10.572;2023-03-03T08:45:02;101565.16;;;9.34;48.12
40490;BME280;26196;52.302;10.572;2023-03-03T08:49:02;101567.75;;;9.39;48.15
40490;BME280;26196;52.302;10.572;2023-03-03T08:53:03;101561.66;;;9.34;48.41
40490;BME280;26196;52.302;10.572;2023-03-03T08:57:04;101548.63;;;9.29;48.24
40490;BME280;26196;52.302;10.572;2023-03-03T09:01:04;101563.38;;;9.38;48.60
40490;BME280;26196;52.302;10.572;2023-03-03T09:05:05;101566.84;;;9.40;48.42
40490;BME280;26196;52.302;10.572;2023-03-03T09:09:06;101566.88;;;9.37;48.09
40490;BME280;26196;52.302;10.572;2023-03-03T09:13:13;101553.81;;;9.32;48.67
40490;BME280;26196;52.302;10.572;2023-03-03T09:17:34;101562.56;;;9.31;48.43
40490;BME280;26196;52.302;10.572;2023-03-03T09:21:34;101559.91;;;9.34;48.91
40490;BME280;26196;52.302;10.572;2023-03-03T09:25:36;101558.19;;;9.32;49.26
40490;BME280;26196;52.302;10.572;2023-03-03T09:29:36;101559.03;;;9.37;48.99
40490;BME280;26196;52.302;10.572;2023-03-03T09:33:43;101564.25;;;9.41;48.45
40490;BME280;26196;52.302;10.572;2023-03-03T09:37:44;101562.50;;;9.40;48.78
40490;BME280;26196;52.302;10.572;2023-03-03T09:46:19;101573.00;;;9.36;49.17
40490;BME280;26196;52.302;10.572;2023-03-03T10:07:38;101562.50;;;9.39;49.30
40490;BME280;26196;52.302;10.572;2023-03-03T10:17:01;101582.47;;;9.51;49.52
40490;BME280;26196;52.302;10.572;2023-03-03T10:25:08;101579.00;;;9.50;50.06
40490;BME280;26196;52.302;10.572;2023-03-03T10:29:28;101582.44;;;9.55;50.08
40490;BME280;26196;52.302;10.572;2023-03-03T10:55:33;101585.84;;;9.67;50.33
40490;BME280;26196;52.302;10.572;2023-03-03T11:12:32;101583.25;;;9.68;50.71
40490;BME280;26196;52.302;10.572;2023-03-03T11:29:23;101564.91;;;9.74;51.23
40490;BME280;26196;52.302;10.572;2023-03-03T11:37:40;101538.81;;;9.63;51.93
40490;BME280;26196;52.302;10.572;2023-03-03T11:42:10;101558.78;;;9.78;51.93
40490;BME280;26196;52.302;10.572;2023-03-03T11:46:21;101539.63;;;9.73;51.73
40490;BME280;26196;52.302;10.572;2023-03-03T11:50:32;101537.88;;;9.75;51.89
40490;BME280;26196;52.302;10.572;2023-03-03T11:58:46;101533.50;;;9.80;51.65
40490;BME280;26196;52.302;10.572;2023-03-03T12:03:15;101535.16;;;9.88;51.99
40490;BME280;26196;52.302;10.572;2023-03-03T12:07:35;101522.16;;;9.78;51.86
40490;BME280;26196;52.302;10.572;2023-03-03T12:12:05;101515.13;;;9.86;51.79
40490;BME280;26196;52.302;10.572;2023-03-03T12:16:37;101526.41;;;9.96;52.16
40490;BME280;26196;52.302;10.572;2023-03-03T12:21:00;101522.88;;;9.97;51.95
40490;BME280;26196;52.302;10.572;2023-03-03T12:25:33;101526.34;;;9.99;51.86
40490;BME280;26196;52.302;10.572;2023-03-03T12:42:42;101516.69;;;10.06;51.96
40490;BME280;26196;52.302;10.572;2023-03-03T12:55:52;101508.81;;;10.11;52.05
40490;BME280;26196;52.302;10.572;2023-03-03T13:21:18;101479.09;;;10.16;52.75
40490;BME280;26196;52.302;10.572;2023-03-03T13:29:55;101468.72;;;10.12;52.44
40490;BME280;26196;52.302;10.572;2023-03-03T13:33:59;101470.31;;;10.22;52.50
40490;BME280;26196;52.302;10.572;2023-03-03T13:38:01;101452.00;;;10.22;52.51
40490;BME280;26196;52.302;10.572;2023-03-03T13:42:18;101458.06;;;10.27;52.26
40490;BME280;26196;52.302;10.572;2023-03-03T13:50:47;101446.72;;;10.29;51.94
40490;BME280;26196;52.302;10.572;2023-03-03T13:55:20;101431.06;;;10.28;52.53
40490;BME280;26196;52.302;10.572;2023-03-03T14:07:59;101413.56;;;10.33;52.50
40490;BME280;26196;52.302;10.572;2023-03-03T14:12:09;101420.47;;;10.39;52.16
40490;BME280;26196;52.302;10.572;2023-03-03T14:20:37;101408.28;;;10.38;52.17
40490;BME280;26196;52.302;10.572;2023-03-03T14:29:29;101389.09;;;10.34;52.12
40490;BME280;26196;52.302;10.572;2023-03-03T14:33:37;101409.03;;;10.46;52.24
40490;BME280;26196;52.302;10.572;2023-03-03T14:37:44;101407.28;;;10.46;52.22
40490;BME280;26196;52.302;10.572;2023-03-03T14:41:45;101392.53;;;10.41;51.80
40490;BME280;26196;52.302;10.572;2023-03-03T14:45:48;101390.72;;;10.44;52.19
40490;BME280;26196;52.302;10.572;2023-03-03T14:49:49;101382.06;;;10.41;52.08
40490;BME280;26196;52.302;10.572;2023-03-03T14:53:50;101394.16;;;10.49;52.09
40490;BME280;26196;52.302;10.572;2023-03-03T14:57:58;101400.19;;;10.55;52.05
40490;BME280;26196;52.302;10.572;2023-03-03T15:10:41;101371.44;;;10.51;51.76
40490;BME280;26196;52.302;10.572;2023-03-03T15:14:44;101358.47;;;10.42;51.78
40490;BME280;26196;52.302;10.572;2023-03-03T15:27:44;101389.59;;;10.65;52.11
40490;BME280;26196;52.302;10.572;2023-03-03T15:31:59;101375.69;;;10.62;51.72
40490;BME280;26196;52.302;10.572;2023-03-03T15:36:11;101372.13;;;10.66;52.06
40490;BME280;26196;52.302;10.572;2023-03-03T15:40:38;101354.69;;;10.65;51.64
40490;BME280;26196;52.302;10.572;2023-03-03T16:01:34;101360.72;;;10.70;51.01
40490;BME280;26196;52.302;10.572;2023-03-03T16:05:52;101365.09;;;10.69;51.12
40490;BME280;26196;52.302;10.572;2023-03-03T16:10:35;101363.34;;;10.70;50.68
40490;BME280;26196;52.302;10.572;2023-03-03T16:18:56;101351.16;;;10.69;50.58
40490;BME280;26196;52.302;10.572;2023-03-03T16:23:20;101358.13;;;10.68;50.16
40490;BME280;26196;52.302;10.572;2023-03-03T16:27:51;101333.06;;;10.50;50.07
40490;BME280;26196;52.302;10.572;2023-03-03T16:45:38;101360.72;;;10.70;49.98
40490;BME280;26196;52.302;10.572;2023-03-03T16:54:00;101362.44;;;10.74;50.11
40490;BME280;26196;52.302;10.572;2023-03-03T16:58:19;101372.91;;;10.74;50.02
40490;BME280;26196;52.302;10.572;2023-03-03T17:06:30;101352.81;;;10.75;50.07
40490;BME280;26196;52.302;10.572;2023-03-03T17:19:49;101372.88;;;10.76;50.13
40490;BME280;26196;52.302;10.572;2023-03-03T17:28:39;101379.00;;;10.73;49.80
40490;BME280;26196;52.302;10.572;2023-03-03T17:46:00;101378.16;;;10.72;49.47
40490;BME280;26196;52.302;10.572;2023-03-03T17:59:43;101376.44;;;10.70;49.16
40490;BME280;26196;52.302;10.572;2023-03-03T18:21:50;101369.53;;;10.64;48.35
40490;BME280;26196;52.302;10.572;2023-03-03T18:25:57;101373.00;;;10.66;48.18
40490;BME280;26196;52.302;10.572;2023-03-03T18:30:21;101374.72;;;10.67;47.96
40490;BME280;26196;52.302;10.572;2023-03-03T18:34:41;101363.41;;;10.67;48.45
40490;BME280;26196;52.302;10.572;2023-03-03T18:38:45;101365.13;;;10.68;48.17
40490;BME280;26196;52.302;10.572;2023-03-03T18:42:47;101363.41;;;10.67;48.32
40490;BME280;26196;52.302;10.572;2023-03-03T18:46:53;101372.06;;;10.72;48.47
40490;BME280;26196;52.302;10.572;2023-03-03T18:50:59;101356.47;;;10.63;47.85
40490;BME280;26196;52.302;10.572;2023-03-03T18:59:09;101365.97;;;10.70;48.29
40490;BME280;26196;52.302;10.572;2023-03-03T19:03:31;101365.13;;;10.68;48.00
40490;BME280;26196;52.302;10.572;2023-03-03T19:12:11;101375.53;;;10.71;47.70
40490;BME280;26196;52.302;10.572;2023-03-03T19:16:29;101361.63;;;10.67;48.02
40490;BME280;26196;52.302;10.572;2023-03-03T19:20:58;101364.25;;;10.67;48.09
40490;BME280;26196;52.302;10.572;2023-03-03T19:25:15;101374.72;;;10.69;48.40
40490;BME280;26196;52.302;10.572;2023-03-03T19:39:34;101370.28;;;10.74;48.56
40490;BME280;26196;52.302;10.572;2023-03-03T20:26:41;101334.50;;;10.73;48.18
40490;BME280;26196;52.302;10.572;2023-03-03T20:35:10;101335.34;;;10.75;48.48
40490;BME280;26196;52.302;10.572;2023-03-03T20:48:35;101324.03;;;10.73;48.10
40490;BME280;26196;52.302;10.572;2023-03-03T20:56:59;101329.31;;;10.71;48.34
40490;BME280;26196;52.302;10.572;2023-03-03T21:05:29;101323.16;;;10.72;48.45
40490;BME280;26196;52.302;10.572;2023-03-03T21:09:35;101323.22;;;10.68;48.16
40490;BME280;26196;52.302;10.572;2023-03-03T21:13:50;101320.53;;;10.72;48.26
40490;BME280;26196;52.302;10.572;2023-03-03T21:17:59;101321.41;;;10.73;47.93
40490;BME280;26196;52.302;10.572;2023-03-03T21:22:00;101320.56;;;10.71;48.45
40490;BME280;26196;52.302;10.572;2023-03-03T21:31:11;101324.06;;;10.70;48.01
40490;BME280;26196;52.302;10.572;2023-03-03T21:35:15;101309.22;;;10.70;47.94
40490;BME280;26196;52.302;10.572;2023-03-03T21:39:30;101315.38;;;10.68;47.53
40490;BME280;26196;52.302;10.572;2023-03-03T21:43:48;101296.19;;;10.67;47.78
40490;BME280;26196;52.302;10.572;2023-03-03T21:47:50;101290.94;;;10.66;47.73
40490;BME280;26196;52.302;10.572;2023-03-03T21:51:50;101300.59;;;10.64;48.09
40490;BME280;26196;52.302;10.572;2023-03-03T21:55:54;101299.66;;;10.68;47.94
40490;BME280;26196;52.302;10.572;2023-03-03T21:59:56;101296.25;;;10.63;47.49
40490;BME280;26196;52.302;10.572;2023-03-03T22:03:57;101291.00;;;10.63;48.02
40490;BME280;26196;52.302;10.572;2023-03-03T22:07:57;101291.06;;;10.60;47.96
40490;BME280;26196;52.302;10.572;2023-03-03T22:11:57;101283.25;;;10.57;47.61
40490;BME280;26196;52.302;10.572;2023-03-03T22:15:58;101284.97;;;10.58;48.14
40490;BME280;26196;52.302;10.572;2023-03-03T22:19:58;101285.88;;;10.57;47.98
40490;BME280;26196;52.302;10.572;2023-03-03T22:24:03;101283.31;;;10.54;47.92
40490;BME280;26196;52.302;10.572;2023-03-03T22:28:03;101277.19;;;10.53;47.91
40490;BME280;26196;52.302;10.572;2023-03-03T22:32:04;101271.03;;;10.56;47.70
40490;BME280;26196;52.302;10.572;2023-03-03T22:36:04;101258.00;;;10.52;47.79
40490;BME280;26196;52.302;10.572;2023-03-03T22:40:07;101257.13;;;10.54;48.01
40490;BME280;26196;52.302;10.572;2023-03-03T22:44:08;101244.91;;;10.54;47.82
40490;BME280;26196;52.302;10.572;2023-03-03T22:48:08;101244.91;;;10.52;47.90
40490;BME280;26196;52.302;10.572;2023-03-03T22:52:09;101248.38;;;10.55;47.62
40490;BME280;26196;52.302;10.572;2023-03-03T22:56:09;101234.59;;;10.43;47.59
40490;BME280;26196;52.302;10.572;2023-03-03T23:00:10;101242.41;;;10.45;47.83
40490;BME280;26196;52.302;10.572;2023-03-03T23:04:11;101250.25;;;10.46;47.84
40490;BME280;26196;52.302;10.572;2023-03-03T23:08:13;101240.75;;;10.41;47.70
40490;BME280;26196;52.302;10.572;2023-03-03T23:12:14;101239.84;;;10.42;47.71
40490;BME280;26196;52.302;10.572;2023-03-03T23:16:14;101249.38;;;10.46;47.92
40490;BME280;26196;52.302;10.572;2023-03-03T23:20:22;101246.78;;;10.44;47.82
40490;BME280;26196;52.302;10.572;2023-03-03T23:24:29;101240.78;;;10.38;47.42
40490;BME280;26196;52.302;10.572;2023-03-03T23:28:29;101249.50;;;10.38;47.45
40490;BME280;26196;52.302;10.572;2023-03-03T23:32:29;101236.41;;;10.37;47.53
40490;BME280;26196;52.302;10.572;2023-03-03T23:36:32;101233.91;;;10.31;47.46
40490;BME280;26196;52.302;10.572;2023-03-03T23:40:32;101233.94;;;10.24;47.53
40490;BME280;26196;52.302;10.572;2023-03-03T23:44:32;101244.44;;;10.27;47.04
40490;BME280;26196;52.302;10.572;2023-03-03T23:48:33;101244.41;;;10.26;46.67
40490;BME280;26196;52.302;10.572;2023-03-03T23:52:33;101241.75;;;10.29;46.57
40490;BME280;26196;52.302;10.572;2023-03-03T23:56:34;101229.66;;;10.19;47.25
